Timeline UpdatesTrip UpdatesNews PostsPvt Posts♥♥Travel TipsAdmin PostsConv PostsFollowed PostsChat RequestsBlog PostsPNR Posts

Disclaimer
Search
 
 
Thu Nov 27, 2014 23:55:48 ISTHomeTrainsΣChainsAtlasPNRForumGalleryNewsFAQTripsMembersLoginFeedback
No Recent News for this Train
Other Trains in the News **new
Latest...
1. 2S avbl b/w mumbai & surat 2. MST holders permitted to travel in IInd class general coaches between Delhi-Rohtak-Bhatinda
Sun Nov 23, 2014 (07:58PM)
⇐ Return Journey: Train# 19024

19023/Mumbai Firozpur Janta Express

Time-Table HAS CHANGED.
Nov 23 (7:58PM)
Change Departure Station:
Change Arrival Station:
Post a Train Travel TipPost a Train Travel Tip **new
Post a Comment/Question/Picture/VideoPost a Comment/Question/Picture/Video
Inaugural Run
Mon Oct 01, 1956
Pantry/Catering
✕ NO Pantry Car
✓ Catering Avbl
Catering from local vendors
RSA - Rake Sharing
No RSA. Independent Rake.
Rake/Coach Composition
LOCO, HCPV, SLR, GS, S-8, S-7, S-6, S-5, S-4, S-3, S-2, S-1, GS, GS(MST), GS, SLR Author: Manish Kr Singh Entry: 640399
Loco
BCT NDLS = GZB WAP#5, NDLS-FZR TKD WDM -3A LDH
News    PNR    Forum    Time-Table    Availability    Fare Chart    Map    Arr/Dep History    Trips    Gallery    ΣChains    X/O    Timeline    
Travel Time: 31h 11m    67 halts    Distance: 1425 km    Avg Speed: 45 km/hr
Type: Mail/Express
Zone: WR/Western
Departs @ 15:09 (Avg 17m late)
Platform# ???
SMTWTFS
Palej/PLJ 
Arrives @ 22:20 +1 night (Avg 1m early)
Platform# 1
SMTWTFS
Firozpur Cantt. Junction/FZR 

67 halts. 212 intermediate Stations between Palej and Firozpur Cantt. Junction

Show ALL intermediate Stations  Show Old Time-Table

#TrkCodeStation NameX/OArrivesAvgDepartsAvgHaltPFDay#KmSpeedElevZoneAddress
1/==/BCTMumbai Central (9)  -07:25+141-347.8403mWRMumbai 400008, Maharashtra
2/==/DDRMumbai Dadar Western (6)  07:34+507:37+53m31-341.9536mWRMumbai, Maharashtra
3/==/BVIMumbai Borivali (8)  08:04+508:07+63m41-318.15119mWRMumbai - 400092, Maharashtra
4/==/PLGPalghar (3)O  09:14+909:16+112m11-261.14219mWRPalghar, Maharashtra
5/==/BORBoisar (3)X  09:32+609:34+82m21-249.93317mWRBoisar Tel.no-02525-266626, Maharashtra
6/==/VGNVangaon (3)XO  09:51+109:52+41m11-240.55311mWRDist. Palghar, Maharashtra
7/==/DRDDahanu Road (5)X  10:06+210:08+42m11-228.27612mWRDahanu, Maharashtra
8/==/UBRUmbargam Road (3)XO  10:24+410:26+42m11-207.93630mWRUmbergaon, Gujarat
9/==/SJNSanjan (3)X  10:34 10:35+310:36 10:37+62m11-202.56922mWRSanjan, Gujarat
10/==/BLDBhilad (3)  10:46 10:47+610:48 10:49+72m21-190.96233mWRBhilad, Gujarat
11/==/VAPIVapi (3)X  11:00+711:02+92m11-179.64827mWRVapi, Gujarat
12/==/UVDUdvada (3)X  11:14+611:16+62m--1-170.16018mWRUdvada, Gujarat
13/==/PADPardi (3)X  11:22+611:24+62m--1-164.14919mWRValsad, Gujarat
14/==/BLValsad (3)X  11:42 11:37+511:47 11:42+85m21-153.47215mWRValsad, Gujarat
15/==/BIMBilimora Junction (4)X  11:59 11:57+912:01 12:02+62 5m11-135.53711mWRBilimora, Gujarat
16/==/AMLAmalsad (3)  12:10 12:11+512:12 12:13+52m11-129.910412mWRAmalsad, Gujarat
17/==/NVSNavsari (3)  12:22+1012:27+95m11-114.34614mWRNavsari, Gujarat
18/==/MRLMaroli (3)X  12:38+512:40+62m11-105.92715mWRMaroli, Gujarat
19/==/STSurat (4)X  13:27-313:37+010m11-84.77919mWRSurat 395001, Gujarat
20/==/KIMKim (2)X  13:55+1513:57+142m11-61.15818mWRNH 8, Gujarat
21/==/KSBKosamba Junction (3)  14:05+1614:07+152m11-53.37130mWRKosamba, Gujarat
22/==/PAOPanoli (3)  14:14+1814:16+172m11-45.17729mWRPanoli, Gujarat
23/==/AKVAnkleshwar Junction (4)  14:24+1714:26+172m11-34.83719mWRAnkleshwar, Gujarat
24/==/BHBharuch Junction (5)  14:41+1514:46+135m31-25.48019mWRBharuch, Gujarat
25/==/NIUNabipur (3)14:55+1814:57+182m--1-13.48024mWRNabipur, Gujarat
26/==/PLJPalej (4)»X  15:07+1815:09+172m--10.08329mWRPalej, Gujarat
27/==/MYGMiyagam Karjan (2)X  15:20+1915:22+182m2115.35429mWRKarjan, Gujarat
28/==/BRCVadodara Junction (7)  15:55+2016:05+1910m6145.17336mWRVadodara 390005, Gujarat
29/==/SMLASamlaya Junction (3)  16:27+4816:29+482m--171.77567mWRVadodara, Gujarat
30/==/DRLDerol  16:48+4616:50+472m--195.44381mWRKalol, Gujarat
31/==/GDAGodhra Junction (3)  17:23+1217:28+125m21119.058122mWRGodhra, Gujarat
32/==/SATSant Road (2)X  17:47 17:49+2717:49 17:51+262m--1139.471169mWROrwara, Gujarat
33/==/PPDPiplod Junction  17:59 18:01+2818:01 18:02+292 1m--1151.268209mWRPiplod, Gujarat
34/==/LMKLimkheda  18:07 18:09+3118:09 18:10+322 1m--1159.173205mWRLimkheda, Gujarat
35/==/DHDDahod (3)  18:37+3418:42+335m--1192.190313mWRDahod, Gujarat
36/==/MGNMeghnagar (3)X  19:02 19:04+3819:04 19:06+382m--1225.260317mWRJhabua, Madhya Pradesh
37/==/THDRThandla Road (2)X  19:12 19:14+3819:14 19:15+382 1m--1233.269317mWRJhabua, Madhya Pradesh
38/==/BMIBamnia (2)X  19:37 19:39+4019:39 19:41+402m--1260.850392mWRBamnia, Madhya Pradesh
39/==/RTMRatlam Junction (7)X  20:35+2920:55+2820m51305.566495mWRRatlam 457001, Madhya Pradesh
40/==/KUHKhachrod (2)X  21:17 21:20+3121:19 21:22+302m--1333.122497mWRUjjain, Madhya Pradesh
41/==/NADNagda Junction (4)X  22:00+722:05+95m--1346.968468mWRNagda, Madhya Pradesh
42/==/MEPMahidpur Road  22:20+1722:22+172m--1364.090493mWCRGogapur, Madhya Pradesh
43/==/VMAVikramgarh Alot (2)X  22:38+1822:40+192m21387.982443mWCRKota Division, Madhya Pradesh
44/==/CMUChau Mahla (3)  22:56+2022:58+212m21409.766426mWCRJhalawar, Rajasthan
45/==/SVASuwasra (2)  23:12+2023:14+202m--1425.158450mWCRSuwasra, Madhya Pradesh
46/==/SGZShamgarh (3)  23:28+1823:30+192m--1438.569463mWCRMandsaur, Madhya Pradesh
47/==/BWMBhawani Mandi (3)  23:59+1300:01+182m--1472.071384mWCRBhawani Mandi, Madhya Pradesh
48/==/JHWJhalawar Road (3)X  00:15+1800:17+182m--2488.553361mWCRJhalawar City, Rajasthan
49/==/RMARamganj Mandi Junction (3)X  00:31+1400:33+162m--2500.982358mWCRRamganj Mandi, Rajasthan
50/==/KOTAKota Junction (5)X  01:25+2801:35+3210m12572.171256mWCRKota, Rajasthan
51/==/LKELakheri (3)X  02:26+3002:28+322m--2632.755228mWCRBundi, Rajasthan
52/==/IDGIndargarh Sumerganj Mandi (2)X  02:40+3102:42+322m--2643.766247mWCRIndargarh, Rajasthan
53/==/SWMSawai Madhopur Junction (4)X  03:15+2903:20+295m--2679.972266mWCRSawai Madhopur, Rajasthan
54/==/MLZMalarna  03:45+2903:47+322m--2710.144236mWCRSawai Madhopur, Rajasthan
55/==/NNWNarayanpur Tatwara (2)XO  04:10+2404:12+1:072m--2726.912256mWCRSawai Madhopur, Rajasthan
56/==/GGCGangapur City (3)O  05:40+1005:45+215m12743.960270mWCRGangapur, Rajasthan
57/==/SMBJShri Mahabirji (3)  06:19+1806:20+191m--2777.947240mWCRKarauli, Rajasthan
58/==/HANHindaun City (2)  06:33+1806:35+212m--2788.179230mWCRKarauli, Rajasthan
59/==/FSPFateh Singhpura  06:45+2306:47+232m--2801.366223mWCRState Highway 1, Rajasthan
60/==/BXNBayana Junction (3)O  07:05+2407:10+275m--2821.050198mWCRBayana, Rajasthan
61/==/BTEBharatpur Junction (5)X  08:00+1308:05+295m--2863.024174mWCRBharatpur, Rajasthan
62/==/MTJMathura Junction (10)  09:35 09:30+109:45 09:35+810 5m42896.569179mNCRMathura, Uttar Pradesh
63/==/CHJChata (4)X  10:07 10:02+1010:09 10:04+102m--2927.751187mNCRChhata, Uttar Pradesh
64/==/KSVKosi Kalan (3)X  10:20 10:16+1010:22 10:18+102m12938.054189mNCRKosi Kalan, Uttar Pradesh
65/==/PWLPalwal (8)X  11:08 11:05-211:10 11:07+12m--2980.479200mNRPalwal, Haryana
66/==/BVHBallabgarh (5)  11:28 11:23+1111:30 11:25+112m--21001.640203mNRFaridabad, Haryana
67/==/FDBFaridabad (4)X  11:41 11:37+1411:43 11:39+142m221009.755206mNRold Faridabad, Haryana
68/==/TKDTuglakabad (2)  11:55 11:51+1811:57 11:53+182m--21020.828213mNRNear Tughlakabad Metro Station, Delhi NCT
69/==/OKAOkhla (4)X  12:06+1812:08 12:07+182 1m--21026.828221mNRIshwar Nagar Mathura Road, Delhi NCT
70/==/NZMDelhi Hazrat Nizamuddin (7)  12:18 12:15+1512:20 12:17+152m321030.516209mNRNew Delhi 110013, Delhi NCT
71/==/NDLSNew Delhi (16)XO  12:45+1413:15+1130m121037.814215mNRNew Delhi 110002, Delhi NCT
72/==/DKZDelhi KishanGanj (2)  13:32+2313:34+232m--21041.730220mNRSarai Rohilla, Delhi NCT
73/==/SSBShakur Basti  13:49 13:48+2013:51 13:50+212m--21048.745216mNRPitampura, Delhi NCT
74/==/NNONangloi  14:00+2814:02+322m--21056.258219mNRJJ Colony No 1, Delhi NCT
75/==/BGZBahadurgarh  14:14 14:15+3314:16 14:17+362m--21068.767220mNRBahadurgarh, Haryana
76/==/SPZSampla  14:43 14:33+4014:45 14:35+412m--21086.634222mNRSampla, Haryana
77/==/ROKRohtak Junction (3)  15:10 15:15+2015:15 15:20+205m--21108.982220mNRRohtak, Haryana
78|==|JNAJulana  15:41 15:43+3015:43 15:45+302m--21140.351226mNRJulana, Haryana
79|==|JINDJind Junction (3)  16:15+2116:20+205m--21166.075222mNRJind 126102, Haryana
80|==|UCAUchana  16:35+2616:37+272m--21184.765225mNRDistrict Jind, Haryana
81|==|NRWNarwana Junction (4)  16:51+2716:53+272m--21199.973235mNRKKDE, Haryana
82|==|TUNTohana (2)  17:14+2717:15+281m--21225.437232mNRTohana, Haryana
83|-=|JHLJakhal Junction  17:35+2117:40+205m--21237.678225mNRJakhal, Haryana
84!==!BRZBareta  17:51+1817:53+182m--21251.871223mNRBareta, Punjab
85!==!BLZBudhlada  18:06+2118:08+212m--21267.264223mNRBudhlada, Punjab
86!==!MSZMansaX  18:23+1718:25+172m--21283.337222mNRMansa, Punjab
87!==!KTKLKotli Kalan  18:39-18:41-2m--21291.9101219mNRState Highway 12A, Punjab
88!==!MAURMaur  18:47+1818:49+182m--21302.035220mNRMaur Mandi, Punjab
89!==!BTIBathinda Junction (6)  19:50-120:00+010m121337.567208mNRBathinda, Punjab
90|--|GNAGoneana Bhai Jagta (3)  20:11+1420:13+152m121349.857206mNRGoniana, Punjab
91|--|GJUTGangsar Jaitu (3)  20:28+1720:30+182m121364.049207mNRJaitu, Punjab
92|--|KKPKot Kapura Junction (3)  20:50+1720:52+172m121380.3590mNRKotkapura, Punjab
93|--|FDKFaridkot (3)  21:05+1721:07+172m121393.027202mNRFaridkot, Punjab
94|--|FZRFirozpur Cantt. Junction (5)•  22:20-1-121425.3-200mNRFirozpur Cantt 152001, Punjab
Scroll to Top
Scroll to Bottom